createdAt,value
2022-11-04T00:02:03.339Z,10.91
2022-11-04T00:04:30.595Z,10.89
2022-11-04T00:06:58.099Z,10.89
2022-11-04T00:09:30.101Z,10.83
2022-11-04T00:12:16.254Z,10.79
2022-11-04T00:14:43.047Z,10.70
2022-11-04T00:17:24.277Z,10.63
2022-11-04T00:20:13.853Z,10.66
2022-11-04T00:23:00.592Z,10.58
2022-11-04T00:25:46.074Z,10.44
2022-11-04T00:28:36.827Z,10.46
2022-11-04T00:31:24.615Z,10.42
2022-11-04T00:33:53.050Z,10.38
2022-11-04T00:36:19.565Z,10.41
2022-11-04T00:38:46.328Z,10.43
2022-11-04T00:41:28.770Z,10.41
2022-11-04T00:43:57.623Z,10.46
2022-11-04T00:46:24.247Z,10.50
2022-11-04T00:48:50.958Z,10.57
2022-11-04T00:51:17.430Z,10.60
2022-11-04T00:53:44.060Z,10.62
2022-11-04T00:56:10.521Z,10.61
2022-11-04T00:58:37.263Z,10.68
2022-11-04T01:01:18.579Z,10.68
2022-11-04T01:03:50.329Z,10.71
2022-11-04T01:06:17.681Z,10.76
2022-11-04T01:08:44.138Z,10.73
2022-11-04T01:11:12.567Z,10.80
2022-11-04T01:13:39.816Z,10.82
2022-11-04T01:16:09.464Z,10.79
2022-11-04T01:18:36.191Z,10.76
2022-11-04T01:21:04.477Z,10.84
2022-11-04T01:23:31.322Z,10.78
2022-11-04T01:25:57.814Z,10.72
2022-11-04T01:28:24.214Z,10.68
2022-11-04T01:30:50.648Z,10.68
2022-11-04T01:33:17.261Z,10.67
2022-11-04T01:35:43.911Z,10.68
2022-11-04T01:38:11.268Z,10.65
2022-11-04T01:40:39.520Z,10.57
2022-11-04T01:43:15.591Z,10.33
2022-11-04T01:45:45.242Z,10.31
2022-11-04T01:48:22.159Z,10.34
2022-11-04T01:50:51.530Z,10.37
2022-11-04T01:53:30.546Z,10.38
2022-11-04T01:56:00.072Z,10.36
2022-11-04T01:58:29.653Z,10.52
2022-11-04T02:00:56.174Z,10.49
2022-11-04T02:03:38.954Z,10.38
2022-11-04T02:06:06.651Z,10.26
2022-11-04T02:08:34.256Z,10.52
2022-11-04T02:11:03.727Z,10.49
2022-11-04T02:13:36.750Z,10.38
2022-11-04T02:16:27.739Z,10.31
2022-11-04T02:19:20.460Z,10.26
2022-11-04T02:21:52.705Z,10.18
2022-11-04T02:24:19.045Z,10.16
2022-11-04T02:27:12.039Z,10.20
2022-11-04T02:30:00.166Z,10.22
2022-11-04T02:32:45.142Z,10.16
2022-11-04T02:35:16.849Z,10.16
2022-11-04T02:38:15.605Z,10.23
2022-11-04T02:41:00.696Z,10.24
2022-11-04T02:43:49.745Z,10.20
2022-11-04T02:46:24.740Z,10.23
2022-11-04T02:49:07.905Z,10.14
2022-11-04T02:52:04.660Z,10.18
2022-11-04T02:54:37.804Z,10.19
2022-11-04T02:57:08.555Z,10.27
2022-11-04T02:59:47.987Z,10.26
2022-11-04T03:02:20.179Z,10.21
2022-11-04T03:04:51.713Z,10.15
2022-11-04T03:07:26.295Z,10.19
2022-11-04T03:10:00.031Z,10.20
2022-11-04T03:12:32.494Z,10.15
2022-11-04T03:15:05.389Z,10.17
2022-11-04T03:18:04.043Z,10.09
2022-11-04T03:20:31.705Z,10.08
2022-11-04T03:23:00.295Z,10.10
2022-11-04T03:25:32.349Z,10.11
2022-11-04T03:28:17.084Z,10.07
2022-11-04T03:30:47.858Z,9.98
2022-11-04T03:33:37.506Z,10.07
2022-11-04T03:36:04.605Z,9.96
2022-11-04T03:38:31.002Z,9.86
2022-11-04T03:41:00.562Z,9.93
2022-11-04T03:43:29.026Z,9.88
2022-11-04T03:45:56.127Z,9.88
2022-11-04T03:48:23.697Z,9.91
2022-11-04T03:50:50.957Z,9.72
2022-11-04T03:53:24.181Z,9.47
2022-11-04T03:56:17.167Z,9.60
2022-11-04T03:58:52.433Z,9.45
2022-11-04T04:01:34.308Z,9.48
2022-11-04T04:04:20.440Z,9.64
2022-11-04T04:06:53.346Z,9.79
2022-11-04T04:09:30.658Z,9.65
2022-11-04T04:12:37.375Z,9.59
2022-11-04T04:15:22.515Z,9.65
2022-11-04T04:18:06.273Z,9.69
2022-11-04T04:20:35.887Z,9.77
2022-11-04T04:23:26.552Z,9.76
2022-11-04T04:26:14.951Z,9.77
2022-11-04T04:28:43.171Z,9.50
2022-11-04T04:31:34.834Z,9.68
2022-11-04T04:34:01.857Z,9.65
2022-11-04T04:36:29.873Z,9.57
2022-11-04T04:39:22.890Z,9.52
2022-11-04T04:42:08.218Z,9.67
2022-11-04T04:44:53.590Z,9.60
2022-11-04T04:47:24.059Z,9.48
2022-11-04T04:49:55.491Z,9.51
2022-11-04T04:52:24.499Z,9.53
2022-11-04T04:54:51.115Z,9.47
2022-11-04T04:57:17.640Z,9.58
2022-11-04T04:59:44.109Z,9.62
2022-11-04T05:02:10.885Z,9.58
2022-11-04T05:04:37.463Z,9.49
2022-11-04T05:07:03.895Z,9.37
2022-11-04T05:09:30.318Z,9.43
2022-11-04T05:11:56.719Z,9.46
2022-11-04T05:14:23.131Z,9.47
2022-11-04T05:16:49.545Z,9.44
2022-11-04T05:19:15.963Z,9.31
2022-11-04T05:21:42.359Z,9.43
2022-11-04T05:24:08.874Z,9.41
2022-11-04T05:26:35.286Z,9.45
2022-11-04T05:29:01.738Z,9.38
2022-11-04T05:31:30.263Z,9.33
2022-11-04T05:33:58.122Z,9.36
2022-11-04T05:36:24.538Z,9.30
2022-11-04T05:38:52.630Z,9.34
2022-11-04T05:41:28.512Z,9.33
2022-11-04T05:43:56.983Z,9.39
2022-11-04T05:46:24.115Z,9.35
2022-11-04T05:48:50.762Z,9.28
2022-11-04T05:51:21.999Z,9.30
2022-11-04T05:53:48.477Z,9.30
2022-11-04T05:56:14.962Z,9.13
2022-11-04T05:58:41.642Z,9.24
2022-11-04T06:01:38.798Z,9.27
2022-11-04T06:04:08.362Z,9.21
2022-11-04T06:06:36.850Z,9.26
2022-11-04T06:09:03.895Z,9.21
2022-11-04T06:11:31.701Z,9.27
2022-11-04T06:13:58.505Z,9.18
2022-11-04T06:16:25.494Z,9.14
2022-11-04T06:18:52.563Z,9.11
2022-11-04T06:21:28.821Z,9.25
2022-11-04T06:23:57.415Z,9.22
2022-11-04T06:26:28.372Z,9.13
2022-11-04T06:28:55.429Z,9.48
2022-11-04T06:31:22.107Z,9.37
2022-11-04T06:33:49.213Z,9.32
2022-11-04T06:36:16.604Z,9.33
2022-11-04T06:38:43.072Z,9.26
2022-11-04T06:41:13.909Z,9.14
2022-11-04T06:43:40.661Z,9.16
2022-11-04T06:46:07.242Z,9.14
2022-11-04T06:48:33.625Z,9.05
2022-11-04T06:51:00.879Z,9.27
2022-11-04T06:53:29.103Z,9.44
2022-11-04T06:56:03.160Z,9.40
2022-11-04T06:58:29.720Z,9.31
2022-11-04T07:00:56.269Z,9.27
2022-11-04T07:03:22.817Z,9.22
2022-11-04T07:05:49.212Z,9.22
2022-11-04T07:08:15.626Z,9.19
2022-11-04T07:10:42.385Z,9.13
2022-11-04T07:13:08.896Z,9.22
2022-11-04T07:15:35.847Z,9.31
2022-11-04T07:18:02.242Z,9.31
2022-11-04T07:20:28.694Z,9.36
2022-11-04T07:22:55.115Z,9.35
2022-11-04T07:25:21.594Z,9.41
2022-11-04T07:27:48.065Z,9.42
2022-11-04T07:30:14.553Z,9.46
2022-11-04T07:32:40.935Z,9.51
2022-11-04T07:35:08.006Z,9.53
2022-11-04T07:37:34.424Z,9.67
2022-11-04T07:40:00.806Z,9.58
2022-11-04T07:42:27.310Z,9.53
2022-11-04T07:44:53.924Z,9.50
2022-11-04T07:47:20.318Z,9.49
2022-11-04T07:49:46.793Z,9.70
2022-11-04T07:52:13.289Z,9.81
2022-11-04T07:54:39.727Z,9.92
2022-11-04T07:57:06.097Z,9.89
2022-11-04T07:59:33.661Z,10.10
2022-11-04T08:02:00.279Z,10.15
2022-11-04T08:04:26.908Z,10.13
2022-11-04T08:06:53.607Z,10.28
2022-11-04T08:09:20.183Z,10.28
2022-11-04T08:11:46.619Z,10.23
2022-11-04T08:14:13.102Z,10.12
2022-11-04T08:16:39.566Z,10.14
2022-11-04T08:19:06.211Z,10.17
2022-11-04T08:21:34.190Z,10.20
2022-11-04T08:24:03.752Z,10.33
2022-11-04T08:26:30.190Z,10.36
2022-11-04T08:28:57.025Z,10.70
2022-11-04T08:31:26.799Z,11.20
2022-11-04T08:33:53.902Z,11.45
2022-11-04T08:36:31.527Z,11.60
2022-11-04T08:38:57.966Z,11.52
2022-11-04T08:41:29.187Z,11.39
2022-11-04T08:43:56.450Z,11.34
2022-11-04T08:46:22.862Z,11.20
2022-11-04T08:48:49.563Z,11.17
2022-11-04T08:51:25.114Z,11.08
2022-11-04T08:53:51.685Z,10.96
2022-11-04T08:56:26.051Z,10.97
2022-11-04T08:58:53.343Z,11.02
2022-11-04T09:01:21.269Z,11.41
2022-11-04T09:03:48.964Z,11.67
2022-11-04T09:06:20.822Z,11.87
2022-11-04T09:08:48.022Z,11.88
2022-11-04T09:11:15.712Z,11.93
2022-11-04T09:13:43.234Z,11.91
2022-11-04T09:16:11.890Z,11.88
2022-11-04T09:18:38.427Z,12.00
2022-11-04T09:21:07.033Z,11.92
2022-11-04T09:23:33.655Z,11.87
2022-11-04T09:26:10.027Z,11.87
2022-11-04T09:28:37.075Z,11.90
2022-11-04T09:31:13.124Z,11.67
2022-11-04T09:33:39.899Z,11.73
2022-11-04T09:36:08.361Z,11.68
2022-11-04T09:38:36.584Z,11.80
2022-11-04T09:41:09.541Z,11.82
2022-11-04T09:43:55.442Z,11.88
2022-11-04T09:46:22.804Z,11.92
2022-11-04T09:48:53.701Z,12.02
2022-11-04T09:51:47.909Z,11.88
2022-11-04T09:54:19.488Z,11.84
2022-11-04T09:56:51.167Z,11.56
2022-11-04T09:59:28.810Z,11.48
2022-11-04T10:02:07.589Z,11.37
2022-11-04T10:04:49.037Z,11.31
2022-11-04T10:07:43.967Z,11.24
2022-11-04T10:10:41.835Z,11.23
2022-11-04T10:13:13.622Z,11.34
2022-11-04T10:15:45.990Z,11.48
2022-11-04T10:18:26.938Z,11.62
2022-11-04T10:21:21.526Z,11.95
2022-11-04T10:23:59.082Z,12.25
2022-11-04T10:26:36.875Z,12.43
2022-11-04T10:29:06.832Z,12.59
2022-11-04T10:31:38.648Z,12.51
2022-11-04T10:34:17.586Z,12.45
2022-11-04T10:36:48.173Z,12.45
2022-11-04T10:39:26.645Z,12.38
2022-11-04T10:41:53.236Z,12.46
2022-11-04T10:44:29.545Z,12.60
2022-11-04T10:47:26.875Z,12.59
2022-11-04T10:50:28.242Z,12.66
2022-11-04T10:53:11.202Z,12.58
2022-11-04T10:55:49.648Z,12.59
2022-11-04T10:58:21.552Z,12.50
2022-11-04T11:00:48.389Z,12.55
2022-11-04T11:03:28.845Z,12.46
2022-11-04T11:06:12.076Z,12.31
2022-11-04T11:08:39.101Z,12.22
2022-11-04T11:11:07.170Z,12.07
2022-11-04T11:13:40.327Z,11.98
2022-11-04T11:16:12.234Z,12.00
2022-11-04T11:18:39.866Z,11.98
2022-11-04T11:21:13.895Z,11.93
2022-11-04T11:23:47.384Z,11.97
2022-11-04T11:26:19.423Z,12.10
2022-11-04T11:28:58.481Z,12.07
2022-11-04T11:31:26.722Z,12.12
2022-11-04T11:33:59.189Z,12.19
2022-11-04T11:36:31.291Z,12.20
2022-11-04T11:39:04.104Z,12.25
2022-11-04T11:41:33.559Z,12.26
2022-11-04T11:44:18.757Z,12.22
2022-11-04T11:46:54.629Z,12.36
2022-11-04T11:49:31.099Z,12.31
2022-11-04T11:52:17.644Z,12.20
2022-11-04T11:54:47.620Z,12.17
2022-11-04T11:57:46.582Z,12.17
2022-11-04T12:00:39.634Z,12.14
2022-11-04T12:03:20.978Z,12.16
2022-11-04T12:09:21.611Z,12.12
2022-11-04T12:12:06.497Z,12.24
2022-11-04T12:15:20.602Z,12.29
2022-11-04T12:18:07.517Z,12.44
2022-11-04T12:20:46.062Z,12.55
2022-11-04T12:23:19.659Z,12.59
2022-11-04T12:26:02.302Z,12.72
2022-11-04T12:28:53.293Z,12.84
2022-11-04T12:31:33.250Z,12.92
2022-11-04T12:34:30.329Z,12.60
2022-11-04T12:37:07.250Z,12.53
2022-11-04T12:40:12.577Z,12.44
2022-11-04T12:42:39.069Z,12.51
2022-11-04T12:45:33.021Z,12.48
2022-11-04T12:48:03.804Z,12.55
2022-11-04T12:50:46.878Z,12.58
2022-11-04T12:53:35.049Z,12.52
2022-11-04T12:56:22.200Z,12.57
2022-11-04T12:59:00.840Z,12.49
2022-11-04T13:01:31.529Z,12.36
2022-11-04T13:04:12.699Z,12.40
2022-11-04T13:06:44.352Z,12.38
2022-11-04T13:09:37.790Z,12.43
2022-11-04T13:12:14.992Z,12.51
2022-11-04T13:15:00.325Z,12.48
2022-11-04T13:17:33.017Z,12.66
2022-11-04T13:20:20.785Z,12.76
2022-11-04T13:22:51.608Z,12.88
2022-11-04T13:25:28.391Z,12.89
2022-11-04T13:27:55.409Z,12.97
2022-11-04T13:30:49.961Z,13.00
2022-11-04T13:33:51.119Z,13.03
2022-11-04T13:36:40.730Z,13.01
2022-11-04T13:39:12.313Z,12.96
2022-11-04T13:42:09.359Z,12.86
2022-11-04T13:44:46.979Z,12.73
2022-11-04T13:47:24.466Z,12.43
2022-11-04T13:49:55.232Z,12.25
2022-11-04T13:52:28.289Z,12.29
2022-11-04T13:54:59.607Z,12.29
2022-11-04T13:57:30.960Z,12.32
2022-11-04T14:00:15.653Z,12.41
2022-11-04T14:02:48.067Z,12.37
2022-11-04T14:05:40.577Z,12.27
2022-11-04T14:08:15.774Z,12.32
2022-11-04T14:10:47.992Z,12.35
2022-11-04T14:13:29.713Z,12.32
2022-11-04T14:16:32.746Z,12.23
2022-11-04T14:19:42.103Z,12.30
2022-11-04T14:22:15.243Z,12.32
2022-11-04T14:24:42.034Z,12.46
2022-11-04T14:27:30.475Z,12.62
2022-11-04T14:29:58.417Z,12.68
2022-11-04T14:32:30.863Z,12.54
2022-11-04T14:35:01.472Z,12.50
2022-11-04T14:37:32.929Z,12.56
2022-11-04T14:40:02.206Z,12.59
2022-11-04T14:42:50.314Z,12.69
2022-11-04T14:45:21.297Z,12.74
2022-11-04T14:47:55.035Z,12.76
2022-11-04T14:50:26.504Z,12.74
2022-11-04T14:52:58.794Z,12.62
2022-11-04T14:55:31.044Z,12.62
2022-11-04T14:58:28.112Z,12.46
2022-11-04T15:01:01.349Z,12.53
2022-11-04T15:06:40.245Z,12.31
2022-11-04T15:09:21.940Z,12.19
2022-11-04T15:12:07.057Z,12.15
2022-11-04T15:14:37.061Z,12.19
2022-11-04T15:17:03.866Z,12.02
2022-11-04T15:19:33.049Z,11.91
2022-11-04T15:22:06.608Z,11.97
2022-11-04T15:24:34.745Z,11.94
2022-11-04T15:27:07.377Z,11.78
2022-11-04T15:29:33.909Z,11.70
2022-11-04T15:32:05.112Z,11.71
2022-11-04T15:34:33.482Z,11.68
2022-11-04T15:37:05.660Z,11.68
2022-11-04T15:39:37.357Z,11.68
2022-11-04T15:42:26.665Z,11.71
2022-11-04T15:44:55.548Z,11.63
2022-11-04T15:47:28.222Z,11.60
2022-11-04T15:50:05.063Z,11.65
2022-11-04T15:52:31.781Z,11.56
2022-11-04T15:55:00.229Z,11.52
2022-11-04T15:57:29.386Z,11.60
2022-11-04T16:00:04.032Z,11.60
2022-11-04T16:02:33.504Z,11.46
2022-11-04T16:05:05.903Z,11.48
2022-11-04T16:07:38.635Z,11.48
2022-11-04T16:10:25.394Z,11.62
2022-11-04T16:12:56.336Z,11.68
2022-11-04T16:15:41.126Z,11.63
2022-11-04T16:18:29.658Z,11.62
2022-11-04T16:20:56.692Z,11.61
2022-11-04T16:23:25.184Z,11.62
2022-11-04T16:26:05.960Z,11.54
2022-11-04T16:28:37.950Z,11.64
2022-11-04T16:31:24.463Z,11.46
2022-11-04T16:33:51.503Z,11.38
2022-11-04T16:36:23.623Z,11.20
2022-11-04T16:38:54.304Z,11.19
2022-11-04T16:41:21.431Z,11.12
2022-11-04T16:43:49.398Z,11.10
2022-11-04T16:46:16.622Z,11.14
2022-11-04T16:48:43.193Z,11.14
2022-11-04T16:51:21.759Z,11.07
2022-11-04T16:53:52.300Z,10.94
2022-11-04T16:56:21.846Z,10.93
2022-11-04T16:58:48.353Z,10.82
2022-11-04T17:01:15.570Z,10.58
2022-11-04T17:03:45.687Z,10.52
2022-11-04T17:06:14.512Z,10.51
2022-11-04T17:08:44.271Z,10.61
2022-11-04T17:11:11.163Z,10.56
2022-11-04T17:13:38.683Z,10.54
2022-11-04T17:16:06.927Z,10.59
2022-11-04T17:18:34.950Z,10.68
2022-11-04T17:21:06.699Z,10.67
2022-11-04T17:23:33.234Z,10.65
2022-11-04T17:25:59.728Z,10.67
2022-11-04T17:28:26.968Z,10.57
2022-11-04T17:30:53.731Z,10.58
2022-11-04T17:33:20.266Z,10.56
2022-11-04T17:35:49.359Z,10.54
2022-11-04T17:38:16.903Z,10.43
2022-11-04T17:41:01.674Z,10.41
2022-11-04T17:43:46.932Z,10.42
2022-11-04T17:46:32.407Z,10.35
2022-11-04T17:48:59.035Z,10.31
2022-11-04T17:51:25.517Z,10.26
2022-11-04T17:53:52.218Z,10.34
2022-11-04T17:56:21.999Z,10.32
2022-11-04T17:58:49.728Z,10.35
2022-11-04T18:01:17.873Z,10.35
2022-11-04T18:03:44.342Z,10.31
2022-11-04T18:06:10.856Z,10.34
2022-11-04T18:08:37.692Z,10.32
2022-11-04T18:11:07.764Z,10.20
2022-11-04T18:13:35.486Z,10.15
2022-11-04T18:16:12.770Z,10.09
2022-11-04T18:18:39.608Z,10.04
2022-11-04T18:21:08.083Z,10.04
2022-11-04T18:23:34.684Z,10.04
2022-11-04T18:26:01.200Z,9.93
2022-11-04T18:28:27.613Z,10.03
2022-11-04T18:30:54.011Z,10.17
2022-11-04T18:33:20.455Z,10.27
2022-11-04T18:35:46.881Z,10.31
2022-11-04T18:38:13.360Z,10.40
2022-11-04T18:40:39.770Z,10.35
2022-11-04T18:43:09.098Z,10.32
2022-11-04T18:45:36.768Z,10.31
2022-11-04T18:48:03.454Z,10.31
2022-11-04T18:50:30.359Z,10.14
2022-11-04T18:52:56.766Z,10.18
2022-11-04T18:55:23.987Z,10.21
2022-11-04T18:57:54.324Z,10.16
2022-11-04T19:00:20.982Z,10.07
2022-11-04T19:02:47.516Z,10.03
2022-11-04T19:05:14.043Z,9.98
2022-11-04T19:07:42.022Z,10.08
2022-11-04T19:10:08.895Z,10.07
2022-11-04T19:12:53.622Z,10.01
2022-11-04T19:15:20.203Z,10.05
2022-11-04T19:17:47.060Z,10.13
2022-11-04T19:20:13.641Z,10.11
2022-11-04T19:22:40.769Z,10.10
2022-11-04T19:25:08.365Z,10.06
2022-11-04T19:27:34.926Z,9.96
2022-11-04T19:30:01.415Z,9.92
2022-11-04T19:32:27.869Z,9.93
2022-11-04T19:34:54.260Z,9.93
2022-11-04T19:37:20.748Z,9.91
2022-11-04T19:39:47.226Z,9.99
2022-11-04T19:42:32.983Z,9.99
2022-11-04T19:44:59.408Z,10.08
2022-11-04T19:47:25.838Z,9.98
2022-11-04T19:49:52.250Z,10.02
2022-11-04T19:52:19.406Z,10.02
2022-11-04T19:54:45.857Z,10.00
2022-11-04T19:57:12.331Z,9.96
2022-11-04T19:59:38.726Z,9.94
2022-11-04T20:02:05.271Z,9.96
2022-11-04T20:04:31.915Z,9.86
2022-11-04T20:06:58.478Z,9.82
2022-11-04T20:09:25.999Z,9.82
2022-11-04T20:12:10.877Z,9.89
2022-11-04T20:14:37.265Z,9.81
2022-11-04T20:17:06.054Z,9.89
2022-11-04T20:19:32.946Z,9.90
2022-11-04T20:21:59.416Z,9.88
2022-11-04T20:24:25.878Z,9.90
2022-11-04T20:26:52.433Z,9.92
2022-11-04T20:29:18.940Z,9.96
2022-11-04T20:31:45.855Z,9.96
2022-11-04T20:34:14.033Z,9.97
2022-11-04T20:36:40.893Z,10.02
2022-11-04T20:39:13.205Z,10.06
2022-11-04T20:41:39.804Z,10.05
2022-11-04T20:44:06.261Z,9.97
2022-11-04T20:46:34.715Z,10.04
2022-11-04T20:49:05.751Z,9.96
2022-11-04T20:51:34.355Z,9.99
2022-11-04T20:54:03.803Z,9.95
2022-11-04T20:56:32.532Z,9.99
2022-11-04T20:59:00.405Z,9.95
2022-11-04T21:01:30.554Z,9.94
2022-11-04T21:04:01.313Z,9.98
2022-11-04T21:06:28.823Z,9.97
2022-11-04T21:08:56.104Z,10.01
2022-11-04T21:11:24.353Z,9.91
2022-11-04T21:13:55.139Z,9.94
2022-11-04T21:16:21.863Z,10.00
2022-11-04T21:18:48.344Z,10.11
2022-11-04T21:21:16.118Z,10.15
2022-11-04T21:23:42.951Z,10.12
2022-11-04T21:26:13.760Z,10.06
2022-11-04T21:28:40.483Z,10.12
2022-11-04T21:31:10.035Z,10.09
2022-11-04T21:33:37.055Z,10.10
2022-11-04T21:36:08.060Z,10.05
2022-11-04T21:38:35.223Z,10.09
2022-11-04T21:41:13.097Z,10.04
2022-11-04T21:43:40.364Z,10.18
2022-11-04T21:46:13.250Z,10.16
2022-11-04T21:48:40.495Z,10.06
2022-11-04T21:51:16.019Z,9.88
2022-11-04T21:53:43.201Z,9.94
2022-11-04T21:56:23.704Z,9.91
2022-11-04T21:58:51.357Z,9.90
2022-11-04T22:01:20.730Z,9.94
2022-11-04T22:03:54.661Z,9.93
2022-11-04T22:06:21.721Z,9.96
2022-11-04T22:08:53.761Z,10.07
2022-11-04T22:11:23.917Z,10.05
2022-11-04T22:14:01.846Z,10.03
2022-11-04T22:16:31.735Z,10.06
2022-11-04T22:19:00.492Z,10.02
2022-11-04T22:21:28.410Z,10.00
2022-11-04T22:23:55.463Z,10.04
2022-11-04T22:26:24.819Z,10.12
2022-11-04T22:28:52.334Z,10.14
2022-11-04T22:31:34.052Z,10.09
2022-11-04T22:34:01.446Z,10.06
2022-11-04T22:36:29.139Z,10.10
2022-11-04T22:38:56.220Z,10.17
2022-11-04T22:41:28.382Z,10.12
2022-11-04T22:43:56.087Z,10.13
2022-11-04T22:46:26.603Z,10.13
2022-11-04T22:48:53.256Z,10.10
2022-11-04T22:51:20.089Z,10.01
2022-11-04T22:53:51.308Z,10.10
2022-11-04T22:56:21.463Z,10.01
2022-11-04T22:58:47.868Z,9.93
2022-11-04T23:01:15.131Z,9.91
2022-11-04T23:03:42.092Z,9.89
2022-11-04T23:06:09.336Z,9.96
2022-11-04T23:08:36.406Z,10.01
2022-11-04T23:11:25.695Z,10.05
2022-11-04T23:14:19.795Z,10.06
2022-11-04T23:17:08.010Z,10.12
2022-11-04T23:19:34.543Z,10.05
2022-11-04T23:22:19.676Z,10.07
2022-11-04T23:25:04.603Z,10.06
2022-11-04T23:27:53.523Z,10.05
2022-11-04T23:30:21.088Z,10.07
2022-11-04T23:32:54.837Z,10.14
2022-11-04T23:35:42.622Z,10.21
2022-11-04T23:38:09.447Z,10.13
2022-11-04T23:40:36.167Z,10.07
2022-11-04T23:43:02.622Z,10.06
2022-11-04T23:45:48.650Z,10.07
2022-11-04T23:48:34.120Z,10.05
2022-11-04T23:51:19.984Z,10.13
2022-11-04T23:54:05.880Z,9.98
2022-11-04T23:56:51.322Z,9.95
2022-11-04T23:59:37.098Z,9.97
